sensor_id;sensor_type;location;lat;lon;timestamp;P1;durP1;ratioP1;P2;durP2;ratioP2
13897;SDS011;7019;50.766;4.474;2022-07-30T00:02:23;7.77;;;3.60;;
13897;SDS011;7019;50.766;4.474;2022-07-30T00:04:52;5.67;;;3.40;;
13897;SDS011;7019;50.766;4.474;2022-07-30T00:07:19;6.73;;;3.63;;
13897;SDS011;7019;50.766;4.474;2022-07-30T00:09:46;8.27;;;3.00;;
13897;SDS011;7019;50.766;4.474;2022-07-30T00:12:14;4.70;;;3.17;;
13897;SDS011;7019;50.766;4.474;2022-07-30T00:14:42;7.33;;;3.53;;
13897;SDS011;7019;50.766;4.474;2022-07-30T00:17:09;5.37;;;3.70;;
13897;SDS011;7019;50.766;4.474;2022-07-30T00:19:36;9.17;;;3.60;;
13897;SDS011;7019;50.766;4.474;2022-07-30T00:22:03;7.23;;;4.00;;
13897;SDS011;7019;50.766;4.474;2022-07-30T00:24:30;7.57;;;3.40;;
13897;SDS011;7019;50.766;4.474;2022-07-30T00:26:57;9.13;;;4.00;;
13897;SDS011;7019;50.766;4.474;2022-07-30T00:29:25;10.40;;;3.60;;
13897;SDS011;7019;50.766;4.474;2022-07-30T00:31:53;5.27;;;3.20;;
13897;SDS011;7019;50.766;4.474;2022-07-30T00:34:20;11.53;;;3.67;;
13897;SDS011;7019;50.766;4.474;2022-07-30T00:36:47;5.70;;;3.47;;
13897;SDS011;7019;50.766;4.474;2022-07-30T00:39:14;4.87;;;3.33;;
13897;SDS011;7019;50.766;4.474;2022-07-30T00:44:23;5.57;;;3.80;;
13897;SDS011;7019;50.766;4.474;2022-07-30T00:46:53;3.80;;;3.40;;
13897;SDS011;7019;50.766;4.474;2022-07-30T00:49:20;8.93;;;3.67;;
13897;SDS011;7019;50.766;4.474;2022-07-30T00:51:47;5.17;;;2.90;;
13897;SDS011;7019;50.766;4.474;2022-07-30T00:54:16;6.90;;;3.13;;
13897;SDS011;7019;50.766;4.474;2022-07-30T00:56:43;5.00;;;2.90;;
13897;SDS011;7019;50.766;4.474;2022-07-30T00:59:10;4.97;;;3.23;;
13897;SDS011;7019;50.766;4.474;2022-07-30T01:01:38;7.37;;;2.97;;
13897;SDS011;7019;50.766;4.474;2022-07-30T01:04:05;8.43;;;3.43;;
13897;SDS011;7019;50.766;4.474;2022-07-30T01:06:35;5.83;;;3.10;;
13897;SDS011;7019;50.766;4.474;2022-07-30T01:09:03;5.27;;;3.10;;
13897;SDS011;7019;50.766;4.474;2022-07-30T01:11:33;4.47;;;2.80;;
13897;SDS011;7019;50.766;4.474;2022-07-30T01:14:02;6.00;;;3.10;;
13897;SDS011;7019;50.766;4.474;2022-07-30T01:16:30;6.47;;;3.17;;
13897;SDS011;7019;50.766;4.474;2022-07-30T01:18:59;3.27;;;2.77;;
13897;SDS011;7019;50.766;4.474;2022-07-30T01:21:45;3.77;;;3.03;;
13897;SDS011;7019;50.766;4.474;2022-07-30T01:24:21;6.63;;;3.43;;
13897;SDS011;7019;50.766;4.474;2022-07-30T01:26:55;4.97;;;2.97;;
13897;SDS011;7019;50.766;4.474;2022-07-30T01:29:23;4.83;;;2.73;;
13897;SDS011;7019;50.766;4.474;2022-07-30T01:31:52;5.37;;;2.80;;
13897;SDS011;7019;50.766;4.474;2022-07-30T01:34:24;5.67;;;2.87;;
13897;SDS011;7019;50.766;4.474;2022-07-30T01:36:54;5.20;;;3.20;;
13897;SDS011;7019;50.766;4.474;2022-07-30T01:39:23;5.97;;;2.70;;
13897;SDS011;7019;50.766;4.474;2022-07-30T01:41:52;6.73;;;3.20;;
13897;SDS011;7019;50.766;4.474;2022-07-30T01:44:22;9.30;;;2.67;;
13897;SDS011;7019;50.766;4.474;2022-07-30T01:46:52;5.27;;;2.90;;
13897;SDS011;7019;50.766;4.474;2022-07-30T01:49:20;5.67;;;3.90;;
13897;SDS011;7019;50.766;4.474;2022-07-30T01:51:49;4.43;;;3.40;;
13897;SDS011;7019;50.766;4.474;2022-07-30T01:54:17;4.37;;;3.47;;
13897;SDS011;7019;50.766;4.474;2022-07-30T01:56:46;3.73;;;3.37;;
13897;SDS011;7019;50.766;4.474;2022-07-30T01:59:17;4.83;;;3.13;;
13897;SDS011;7019;50.766;4.474;2022-07-30T02:01:46;4.03;;;2.73;;
13897;SDS011;7019;50.766;4.474;2022-07-30T02:04:13;6.77;;;3.53;;
13897;SDS011;7019;50.766;4.474;2022-07-30T02:06:41;4.97;;;3.27;;
13897;SDS011;7019;50.766;4.474;2022-07-30T02:09:12;6.50;;;3.10;;
13897;SDS011;7019;50.766;4.474;2022-07-30T02:11:45;5.10;;;3.30;;
13897;SDS011;7019;50.766;4.474;2022-07-30T02:14:36;5.17;;;3.03;;
13897;SDS011;7019;50.766;4.474;2022-07-30T02:17:07;5.77;;;3.40;;
13897;SDS011;7019;50.766;4.474;2022-07-30T02:19:37;5.00;;;3.37;;
13897;SDS011;7019;50.766;4.474;2022-07-30T02:22:10;5.27;;;3.33;;
13897;SDS011;7019;50.766;4.474;2022-07-30T02:24:40;5.40;;;3.33;;
13897;SDS011;7019;50.766;4.474;2022-07-30T02:27:11;7.33;;;3.83;;
13897;SDS011;7019;50.766;4.474;2022-07-30T02:29:42;5.97;;;3.60;;
13897;SDS011;7019;50.766;4.474;2022-07-30T02:32:12;4.93;;;3.57;;
13897;SDS011;7019;50.766;4.474;2022-07-30T02:34:42;8.80;;;4.13;;
13897;SDS011;7019;50.766;4.474;2022-07-30T02:37:11;5.50;;;3.83;;
13897;SDS011;7019;50.766;4.474;2022-07-30T02:39:40;8.03;;;3.80;;
13897;SDS011;7019;50.766;4.474;2022-07-30T02:42:09;8.07;;;4.20;;
13897;SDS011;7019;50.766;4.474;2022-07-30T02:44:38;8.33;;;4.40;;
13897;SDS011;7019;50.766;4.474;2022-07-30T02:47:10;7.67;;;4.03;;
13897;SDS011;7019;50.766;4.474;2022-07-30T02:49:41;8.63;;;4.60;;
13897;SDS011;7019;50.766;4.474;2022-07-30T02:52:09;8.27;;;4.87;;
13897;SDS011;7019;50.766;4.474;2022-07-30T02:54:39;5.77;;;4.67;;
13897;SDS011;7019;50.766;4.474;2022-07-30T02:57:08;9.60;;;5.37;;
13897;SDS011;7019;50.766;4.474;2022-07-30T02:59:37;8.53;;;5.27;;
13897;SDS011;7019;50.766;4.474;2022-07-30T03:02:07;9.40;;;5.70;;
13897;SDS011;7019;50.766;4.474;2022-07-30T03:04:36;7.20;;;5.33;;
13897;SDS011;7019;50.766;4.474;2022-07-30T03:07:05;10.30;;;5.50;;
13897;SDS011;7019;50.766;4.474;2022-07-30T03:09:33;11.23;;;5.83;;
13897;SDS011;7019;50.766;4.474;2022-07-30T03:12:02;8.07;;;5.43;;
13897;SDS011;7019;50.766;4.474;2022-07-30T03:14:31;9.47;;;5.73;;
13897;SDS011;7019;50.766;4.474;2022-07-30T03:16:58;8.40;;;5.27;;
13897;SDS011;7019;50.766;4.474;2022-07-30T03:19:30;8.57;;;5.53;;
13897;SDS011;7019;50.766;4.474;2022-07-30T03:22:02;8.43;;;6.07;;
13897;SDS011;7019;50.766;4.474;2022-07-30T03:24:32;8.50;;;5.40;;
13897;SDS011;7019;50.766;4.474;2022-07-30T03:27:01;8.50;;;5.93;;
13897;SDS011;7019;50.766;4.474;2022-07-30T03:29:29;8.23;;;5.97;;
13897;SDS011;7019;50.766;4.474;2022-07-30T03:31:58;7.90;;;5.80;;
13897;SDS011;7019;50.766;4.474;2022-07-30T03:34:26;12.60;;;6.50;;
13897;SDS011;7019;50.766;4.474;2022-07-30T03:36:57;7.33;;;5.83;;
13897;SDS011;7019;50.766;4.474;2022-07-30T03:39:24;9.50;;;6.10;;
13897;SDS011;7019;50.766;4.474;2022-07-30T03:41:52;7.77;;;5.73;;
13897;SDS011;7019;50.766;4.474;2022-07-30T03:44:21;10.13;;;5.47;;
13897;SDS011;7019;50.766;4.474;2022-07-30T03:46:48;8.63;;;5.83;;
13897;SDS011;7019;50.766;4.474;2022-07-30T03:49:19;9.57;;;5.83;;
13897;SDS011;7019;50.766;4.474;2022-07-30T03:51:49;9.40;;;6.03;;
13897;SDS011;7019;50.766;4.474;2022-07-30T03:54:19;10.20;;;6.40;;
13897;SDS011;7019;50.766;4.474;2022-07-30T03:56:46;8.33;;;5.53;;
13897;SDS011;7019;50.766;4.474;2022-07-30T03:59:13;7.87;;;5.90;;
13897;SDS011;7019;50.766;4.474;2022-07-30T04:01:41;9.37;;;6.47;;
13897;SDS011;7019;50.766;4.474;2022-07-30T04:04:08;9.40;;;5.53;;
13897;SDS011;7019;50.766;4.474;2022-07-30T04:06:36;7.10;;;5.17;;
13897;SDS011;7019;50.766;4.474;2022-07-30T04:09:06;8.20;;;5.37;;
13897;SDS011;7019;50.766;4.474;2022-07-30T04:11:34;9.03;;;5.90;;
13897;SDS011;7019;50.766;4.474;2022-07-30T04:14:01;7.70;;;5.93;;
13897;SDS011;7019;50.766;4.474;2022-07-30T04:16:30;9.90;;;6.40;;
13897;SDS011;7019;50.766;4.474;2022-07-30T04:19:06;10.60;;;6.17;;
13897;SDS011;7019;50.766;4.474;2022-07-30T04:21:37;10.73;;;6.13;;
13897;SDS011;7019;50.766;4.474;2022-07-30T04:24:08;10.30;;;6.57;;
13897;SDS011;7019;50.766;4.474;2022-07-30T04:26:36;8.80;;;6.23;;
13897;SDS011;7019;50.766;4.474;2022-07-30T04:29:05;7.67;;;5.87;;
13897;SDS011;7019;50.766;4.474;2022-07-30T04:31:34;7.70;;;5.90;;
13897;SDS011;7019;50.766;4.474;2022-07-30T04:34:02;6.00;;;5.40;;
13897;SDS011;7019;50.766;4.474;2022-07-30T04:36:30;6.77;;;6.10;;
13897;SDS011;7019;50.766;4.474;2022-07-30T04:38:58;9.57;;;6.07;;
13897;SDS011;7019;50.766;4.474;2022-07-30T04:41:27;11.27;;;6.07;;
13897;SDS011;7019;50.766;4.474;2022-07-30T04:43:54;6.20;;;5.60;;
13897;SDS011;7019;50.766;4.474;2022-07-30T04:46:21;8.47;;;6.00;;
13897;SDS011;7019;50.766;4.474;2022-07-30T04:48:49;8.53;;;5.33;;
13897;SDS011;7019;50.766;4.474;2022-07-30T04:51:17;9.57;;;6.47;;
13897;SDS011;7019;50.766;4.474;2022-07-30T04:53:49;9.57;;;5.60;;
13897;SDS011;7019;50.766;4.474;2022-07-30T04:56:19;8.17;;;6.27;;
13897;SDS011;7019;50.766;4.474;2022-07-30T04:58:48;6.37;;;5.27;;
13897;SDS011;7019;50.766;4.474;2022-07-30T05:01:17;7.13;;;5.90;;
13897;SDS011;7019;50.766;4.474;2022-07-30T05:03:49;7.70;;;5.63;;
13897;SDS011;7019;50.766;4.474;2022-07-30T05:06:17;8.90;;;6.00;;
13897;SDS011;7019;50.766;4.474;2022-07-30T05:08:45;10.13;;;5.13;;
13897;SDS011;7019;50.766;4.474;2022-07-30T05:11:13;6.33;;;5.30;;
13897;SDS011;7019;50.766;4.474;2022-07-30T05:13:40;7.30;;;6.23;;
13897;SDS011;7019;50.766;4.474;2022-07-30T05:16:09;7.80;;;6.13;;
13897;SDS011;7019;50.766;4.474;2022-07-30T05:18:36;12.67;;;7.10;;
13897;SDS011;7019;50.766;4.474;2022-07-30T05:21:04;9.30;;;7.50;;
13897;SDS011;7019;50.766;4.474;2022-07-30T05:23:31;10.77;;;6.97;;
13897;SDS011;7019;50.766;4.474;2022-07-30T05:25:59;13.17;;;7.80;;
13897;SDS011;7019;50.766;4.474;2022-07-30T05:28:26;13.10;;;11.13;;
13897;SDS011;7019;50.766;4.474;2022-07-30T05:30:53;12.03;;;8.60;;
13897;SDS011;7019;50.766;4.474;2022-07-30T05:33:22;14.67;;;8.63;;
13897;SDS011;7019;50.766;4.474;2022-07-30T05:35:49;12.37;;;9.10;;
13897;SDS011;7019;50.766;4.474;2022-07-30T05:38:17;18.70;;;10.90;;
13897;SDS011;7019;50.766;4.474;2022-07-30T05:40:44;16.07;;;11.33;;
13897;SDS011;7019;50.766;4.474;2022-07-30T05:43:11;15.27;;;10.30;;
13897;SDS011;7019;50.766;4.474;2022-07-30T05:45:38;17.67;;;11.13;;
13897;SDS011;7019;50.766;4.474;2022-07-30T05:48:05;18.20;;;13.80;;
13897;SDS011;7019;50.766;4.474;2022-07-30T05:50:34;22.73;;;15.40;;
13897;SDS011;7019;50.766;4.474;2022-07-30T05:53:01;16.80;;;12.00;;
13897;SDS011;7019;50.766;4.474;2022-07-30T05:55:28;14.87;;;11.47;;
13897;SDS011;7019;50.766;4.474;2022-07-30T05:57:55;14.43;;;10.97;;
13897;SDS011;7019;50.766;4.474;2022-07-30T06:00:22;17.87;;;11.23;;
13897;SDS011;7019;50.766;4.474;2022-07-30T06:02:50;12.73;;;10.50;;
13897;SDS011;7019;50.766;4.474;2022-07-30T06:05:17;13.83;;;10.13;;
13897;SDS011;7019;50.766;4.474;2022-07-30T06:07:45;12.03;;;10.73;;
13897;SDS011;7019;50.766;4.474;2022-07-30T06:10:12;16.27;;;12.47;;
13897;SDS011;7019;50.766;4.474;2022-07-30T06:12:39;16.60;;;14.07;;
13897;SDS011;7019;50.766;4.474;2022-07-30T06:15:08;14.83;;;13.37;;
13897;SDS011;7019;50.766;4.474;2022-07-30T06:17:39;19.67;;;12.93;;
13897;SDS011;7019;50.766;4.474;2022-07-30T06:20:08;15.63;;;11.80;;
13897;SDS011;7019;50.766;4.474;2022-07-30T06:22:36;16.23;;;12.83;;
13897;SDS011;7019;50.766;4.474;2022-07-30T06:25:05;14.83;;;10.60;;
13897;SDS011;7019;50.766;4.474;2022-07-30T06:27:33;14.17;;;10.53;;
13897;SDS011;7019;50.766;4.474;2022-07-30T06:30:00;13.67;;;9.00;;
13897;SDS011;7019;50.766;4.474;2022-07-30T06:32:28;11.00;;;6.97;;
13897;SDS011;7019;50.766;4.474;2022-07-30T06:34:55;9.40;;;6.80;;
13897;SDS011;7019;50.766;4.474;2022-07-30T06:37:22;9.50;;;6.10;;
13897;SDS011;7019;50.766;4.474;2022-07-30T06:39:50;8.07;;;6.60;;
13897;SDS011;7019;50.766;4.474;2022-07-30T06:42:18;7.40;;;5.80;;
13897;SDS011;7019;50.766;4.474;2022-07-30T06:44:45;7.78;;;5.05;;
13897;SDS011;7019;50.766;4.474;2022-07-30T06:47:12;11.10;;;6.30;;
13897;SDS011;7019;50.766;4.474;2022-07-30T06:49:44;10.18;;;5.30;;
13897;SDS011;7019;50.766;4.474;2022-07-30T06:52:11;12.88;;;5.63;;
13897;SDS011;7019;50.766;4.474;2022-07-30T06:54:38;8.23;;;5.60;;
13897;SDS011;7019;50.766;4.474;2022-07-30T06:57:05;9.10;;;6.03;;
13897;SDS011;7019;50.766;4.474;2022-07-30T06:59:34;10.60;;;7.38;;
13897;SDS011;7019;50.766;4.474;2022-07-30T07:02:01;5.97;;;3.33;;
13897;SDS011;7019;50.766;4.474;2022-07-30T07:04:28;3.63;;;2.45;;
13897;SDS011;7019;50.766;4.474;2022-07-30T07:06:56;6.93;;;2.70;;
13897;SDS011;7019;50.766;4.474;2022-07-30T07:09:23;5.05;;;1.92;;
13897;SDS011;7019;50.766;4.474;2022-07-30T07:11:50;7.65;;;2.30;;
13897;SDS011;7019;50.766;4.474;2022-07-30T07:14:17;3.45;;;1.65;;
13897;SDS011;7019;50.766;4.474;2022-07-30T07:16:46;4.45;;;2.53;;
13897;SDS011;7019;50.766;4.474;2022-07-30T07:19:13;3.92;;;1.95;;
13897;SDS011;7019;50.766;4.474;2022-07-30T07:21:40;4.63;;;1.75;;
13897;SDS011;7019;50.766;4.474;2022-07-30T07:24:08;3.78;;;1.60;;
13897;SDS011;7019;50.766;4.474;2022-07-30T07:26:35;3.47;;;1.30;;
13897;SDS011;7019;50.766;4.474;2022-07-30T07:29:02;2.63;;;1.25;;
13897;SDS011;7019;50.766;4.474;2022-07-30T07:31:29;4.30;;;1.30;;
13897;SDS011;7019;50.766;4.474;2022-07-30T07:33:57;3.70;;;1.40;;
13897;SDS011;7019;50.766;4.474;2022-07-30T07:36:24;3.90;;;1.35;;
13897;SDS011;7019;50.766;4.474;2022-07-30T07:38:52;7.13;;;1.52;;
13897;SDS011;7019;50.766;4.474;2022-07-30T07:41:19;4.90;;;1.58;;
13897;SDS011;7019;50.766;4.474;2022-07-30T07:43:46;2.67;;;1.10;;
13897;SDS011;7019;50.766;4.474;2022-07-30T07:46:13;2.25;;;1.38;;
13897;SDS011;7019;50.766;4.474;2022-07-30T07:48:41;3.30;;;1.20;;
13897;SDS011;7019;50.766;4.474;2022-07-30T07:51:10;2.92;;;1.27;;
13897;SDS011;7019;50.766;4.474;2022-07-30T07:53:37;3.45;;;1.25;;
13897;SDS011;7019;50.766;4.474;2022-07-30T07:56:04;3.60;;;1.08;;
13897;SDS011;7019;50.766;4.474;2022-07-30T07:58:32;2.65;;;1.38;;
13897;SDS011;7019;50.766;4.474;2022-07-30T08:01:00;5.50;;;1.33;;
13897;SDS011;7019;50.766;4.474;2022-07-30T08:03:27;3.38;;;1.20;;
13897;SDS011;7019;50.766;4.474;2022-07-30T08:05:54;2.60;;;1.30;;
13897;SDS011;7019;50.766;4.474;2022-07-30T08:08:22;3.05;;;1.23;;
13897;SDS011;7019;50.766;4.474;2022-07-30T08:10:50;2.47;;;1.40;;
13897;SDS011;7019;50.766;4.474;2022-07-30T08:13:17;3.00;;;1.40;;
13897;SDS011;7019;50.766;4.474;2022-07-30T08:15:44;2.05;;;1.38;;
13897;SDS011;7019;50.766;4.474;2022-07-30T08:18:11;5.50;;;1.30;;
13897;SDS011;7019;50.766;4.474;2022-07-30T08:20:38;2.83;;;1.25;;
13897;SDS011;7019;50.766;4.474;2022-07-30T08:23:05;3.08;;;1.27;;
13897;SDS011;7019;50.766;4.474;2022-07-30T08:25:34;2.08;;;1.02;;
13897;SDS011;7019;50.766;4.474;2022-07-30T08:28:01;2.92;;;1.05;;
13897;SDS011;7019;50.766;4.474;2022-07-30T08:30:28;2.00;;;1.33;;
13897;SDS011;7019;50.766;4.474;2022-07-30T08:32:55;3.13;;;0.90;;
13897;SDS011;7019;50.766;4.474;2022-07-30T08:35:22;1.65;;;1.23;;
13897;SDS011;7019;50.766;4.474;2022-07-30T08:37:49;4.70;;;1.05;;
13897;SDS011;7019;50.766;4.474;2022-07-30T08:40:17;2.10;;;1.15;;
13897;SDS011;7019;50.766;4.474;2022-07-30T08:42:46;4.10;;;1.20;;
13897;SDS011;7019;50.766;4.474;2022-07-30T08:45:13;2.88;;;1.25;;
13897;SDS011;7019;50.766;4.474;2022-07-30T08:47:43;2.03;;;0.85;;
13897;SDS011;7019;50.766;4.474;2022-07-30T08:50:11;2.10;;;1.25;;
13897;SDS011;7019;50.766;4.474;2022-07-30T08:52:39;1.45;;;0.70;;
13897;SDS011;7019;50.766;4.474;2022-07-30T08:55:07;2.28;;;1.15;;
13897;SDS011;7019;50.766;4.474;2022-07-30T08:57:35;1.92;;;1.08;;
13897;SDS011;7019;50.766;4.474;2022-07-30T09:00:05;1.70;;;1.00;;
13897;SDS011;7019;50.766;4.474;2022-07-30T09:02:33;4.00;;;1.15;;
13897;SDS011;7019;50.766;4.474;2022-07-30T09:05:01;2.55;;;1.02;;
13897;SDS011;7019;50.766;4.474;2022-07-30T09:07:28;2.38;;;1.00;;
13897;SDS011;7019;50.766;4.474;2022-07-30T09:09:57;2.88;;;1.10;;
13897;SDS011;7019;50.766;4.474;2022-07-30T09:12:31;2.88;;;0.98;;
13897;SDS011;7019;50.766;4.474;2022-07-30T09:15:07;2.00;;;1.20;;
13897;SDS011;7019;50.766;4.474;2022-07-30T09:17:45;2.25;;;1.00;;
13897;SDS011;7019;50.766;4.474;2022-07-30T09:20:21;3.25;;;1.20;;
13897;SDS011;7019;50.766;4.474;2022-07-30T09:22:49;2.80;;;1.10;;
13897;SDS011;7019;50.766;4.474;2022-07-30T09:25:33;1.77;;;1.00;;
13897;SDS011;7019;50.766;4.474;2022-07-30T09:28:02;3.42;;;1.10;;
13897;SDS011;7019;50.766;4.474;2022-07-30T09:30:43;3.78;;;1.17;;
13897;SDS011;7019;50.766;4.474;2022-07-30T09:33:12;2.65;;;1.30;;
13897;SDS011;7019;50.766;4.474;2022-07-30T09:35:40;2.55;;;1.35;;
13897;SDS011;7019;50.766;4.474;2022-07-30T09:38:08;1.85;;;1.30;;
13897;SDS011;7019;50.766;4.474;2022-07-30T09:40:35;1.90;;;1.25;;
13897;SDS011;7019;50.766;4.474;2022-07-30T09:43:06;2.28;;;1.02;;
13897;SDS011;7019;50.766;4.474;2022-07-30T09:45:34;3.35;;;0.93;;
13897;SDS011;7019;50.766;4.474;2022-07-30T09:48:03;2.75;;;1.30;;
13897;SDS011;7019;50.766;4.474;2022-07-30T09:50:46;2.95;;;1.23;;
13897;SDS011;7019;50.766;4.474;2022-07-30T09:53:14;2.17;;;1.10;;
13897;SDS011;7019;50.766;4.474;2022-07-30T09:55:41;5.03;;;1.30;;
13897;SDS011;7019;50.766;4.474;2022-07-30T09:58:09;2.88;;;1.25;;
13897;SDS011;7019;50.766;4.474;2022-07-30T10:00:37;2.85;;;1.20;;
13897;SDS011;7019;50.766;4.474;2022-07-30T10:03:14;2.85;;;1.30;;
13897;SDS011;7019;50.766;4.474;2022-07-30T10:05:50;2.35;;;0.88;;
13897;SDS011;7019;50.766;4.474;2022-07-30T10:08:17;2.10;;;1.10;;
13897;SDS011;7019;50.766;4.474;2022-07-30T10:10:45;2.67;;;1.35;;
13897;SDS011;7019;50.766;4.474;2022-07-30T10:13:14;3.33;;;1.20;;
13897;SDS011;7019;50.766;4.474;2022-07-30T10:15:43;2.10;;;1.35;;
13897;SDS011;7019;50.766;4.474;2022-07-30T10:18:11;5.03;;;1.50;;
13897;SDS011;7019;50.766;4.474;2022-07-30T10:20:40;2.38;;;1.25;;
13897;SDS011;7019;50.766;4.474;2022-07-30T10:23:08;2.17;;;1.15;;
13897;SDS011;7019;50.766;4.474;2022-07-30T10:25:36;3.47;;;1.45;;
13897;SDS011;7019;50.766;4.474;2022-07-30T10:28:03;2.28;;;1.20;;
13897;SDS011;7019;50.766;4.474;2022-07-30T10:30:31;2.95;;;1.25;;
13897;SDS011;7019;50.766;4.474;2022-07-30T10:32:59;2.58;;;1.50;;
13897;SDS011;7019;50.766;4.474;2022-07-30T10:35:27;3.35;;;1.73;;
13897;SDS011;7019;50.766;4.474;2022-07-30T10:37:55;2.10;;;1.10;;
13897;SDS011;7019;50.766;4.474;2022-07-30T10:40:27;4.18;;;1.50;;
13897;SDS011;7019;50.766;4.474;2022-07-30T10:45:58;3.60;;;1.80;;
13897;SDS011;7019;50.766;4.474;2022-07-30T10:48:34;2.38;;;1.30;;
13897;SDS011;7019;50.766;4.474;2022-07-30T10:51:02;2.05;;;1.65;;
13897;SDS011;7019;50.766;4.474;2022-07-30T10:53:35;4.20;;;1.83;;
13897;SDS011;7019;50.766;4.474;2022-07-30T10:56:10;3.17;;;1.58;;
13897;SDS011;7019;50.766;4.474;2022-07-30T11:04:34;3.30;;;1.55;;
13897;SDS011;7019;50.766;4.474;2022-07-30T11:09:57;4.20;;;1.77;;
13897;SDS011;7019;50.766;4.474;2022-07-30T11:15:18;4.25;;;2.03;;
13897;SDS011;7019;50.766;4.474;2022-07-30T11:18:05;6.13;;;1.95;;
13897;SDS011;7019;50.766;4.474;2022-07-30T11:20:33;3.40;;;1.80;;
13897;SDS011;7019;50.766;4.474;2022-07-30T11:23:08;3.45;;;1.95;;
13897;SDS011;7019;50.766;4.474;2022-07-30T11:25:54;4.88;;;2.05;;
13897;SDS011;7019;50.766;4.474;2022-07-30T11:28:32;3.95;;;1.52;;
13897;SDS011;7019;50.766;4.474;2022-07-30T11:31:00;5.68;;;1.60;;
13897;SDS011;7019;50.766;4.474;2022-07-30T11:33:28;2.97;;;1.67;;
13897;SDS011;7019;50.766;4.474;2022-07-30T11:36:09;3.47;;;1.77;;
13897;SDS011;7019;50.766;4.474;2022-07-30T11:38:53;4.97;;;1.65;;
13897;SDS011;7019;50.766;4.474;2022-07-30T11:41:23;4.95;;;1.73;;
13897;SDS011;7019;50.766;4.474;2022-07-30T11:46:53;3.05;;;1.40;;
13897;SDS011;7019;50.766;4.474;2022-07-30T11:49:20;3.30;;;1.55;;
13897;SDS011;7019;50.766;4.474;2022-07-30T11:51:47;2.58;;;1.50;;
13897;SDS011;7019;50.766;4.474;2022-07-30T11:54:15;3.60;;;1.67;;
13897;SDS011;7019;50.766;4.474;2022-07-30T11:56:52;5.65;;;1.80;;
13897;SDS011;7019;50.766;4.474;2022-07-30T11:59:21;2.40;;;1.35;;
13897;SDS011;7019;50.766;4.474;2022-07-30T12:01:49;4.20;;;1.45;;
13897;SDS011;7019;50.766;4.474;2022-07-30T12:04:17;5.22;;;1.70;;
13897;SDS011;7019;50.766;4.474;2022-07-30T12:06:45;1.60;;;1.20;;
13897;SDS011;7019;50.766;4.474;2022-07-30T12:09:19;6.07;;;1.30;;
13897;SDS011;7019;50.766;4.474;2022-07-30T12:11:48;3.50;;;1.45;;
13897;SDS011;7019;50.766;4.474;2022-07-30T12:14:17;3.58;;;1.42;;
13897;SDS011;7019;50.766;4.474;2022-07-30T12:16:50;4.10;;;1.90;;
13897;SDS011;7019;50.766;4.474;2022-07-30T12:19:18;7.10;;;1.55;;
13897;SDS011;7019;50.766;4.474;2022-07-30T12:21:45;6.00;;;1.20;;
13897;SDS011;7019;50.766;4.474;2022-07-30T12:24:13;3.10;;;1.40;;
13897;SDS011;7019;50.766;4.474;2022-07-30T12:26:40;5.75;;;1.73;;
13897;SDS011;7019;50.766;4.474;2022-07-30T12:29:08;3.50;;;1.30;;
13897;SDS011;7019;50.766;4.474;2022-07-30T12:31:38;4.07;;;1.38;;
13897;SDS011;7019;50.766;4.474;2022-07-30T12:34:17;5.18;;;1.27;;
13897;SDS011;7019;50.766;4.474;2022-07-30T12:36:45;4.15;;;1.75;;
13897;SDS011;7019;50.766;4.474;2022-07-30T12:39:17;3.25;;;1.60;;
13897;SDS011;7019;50.766;4.474;2022-07-30T12:41:46;1.77;;;1.08;;
13897;SDS011;7019;50.766;4.474;2022-07-30T12:44:35;2.83;;;1.67;;
13897;SDS011;7019;50.766;4.474;2022-07-30T12:47:04;3.03;;;1.40;;
13897;SDS011;7019;50.766;4.474;2022-07-30T12:49:43;2.35;;;1.02;;
13897;SDS011;7019;50.766;4.474;2022-07-30T12:52:18;3.92;;;1.52;;
13897;SDS011;7019;50.766;4.474;2022-07-30T12:54:54;5.50;;;1.65;;
13897;SDS011;7019;50.766;4.474;2022-07-30T12:57:23;2.97;;;1.27;;
13897;SDS011;7019;50.766;4.474;2022-07-30T13:00:00;6.20;;;1.55;;
13897;SDS011;7019;50.766;4.474;2022-07-30T13:02:31;4.57;;;1.60;;
13897;SDS011;7019;50.766;4.474;2022-07-30T13:04:59;4.68;;;1.67;;
13897;SDS011;7019;50.766;4.474;2022-07-30T13:07:26;3.67;;;1.45;;
13897;SDS011;7019;50.766;4.474;2022-07-30T13:10:06;3.00;;;1.20;;
13897;SDS011;7019;50.766;4.474;2022-07-30T13:12:34;3.10;;;1.20;;
13897;SDS011;7019;50.766;4.474;2022-07-30T13:15:03;1.95;;;1.10;;
13897;SDS011;7019;50.766;4.474;2022-07-30T13:17:31;3.20;;;1.00;;
13897;SDS011;7019;50.766;4.474;2022-07-30T13:19:58;1.92;;;1.10;;
13897;SDS011;7019;50.766;4.474;2022-07-30T13:22:25;7.25;;;1.30;;
13897;SDS011;7019;50.766;4.474;2022-07-30T13:24:52;4.10;;;1.20;;
13897;SDS011;7019;50.766;4.474;2022-07-30T13:27:19;2.22;;;1.00;;
13897;SDS011;7019;50.766;4.474;2022-07-30T13:29:47;2.75;;;1.52;;
13897;SDS011;7019;50.766;4.474;2022-07-30T13:32:16;5.97;;;1.25;;
13897;SDS011;7019;50.766;4.474;2022-07-30T13:34:43;2.25;;;1.10;;
13897;SDS011;7019;50.766;4.474;2022-07-30T13:37:10;3.65;;;1.10;;
13897;SDS011;7019;50.766;4.474;2022-07-30T13:39:37;2.65;;;1.20;;
13897;SDS011;7019;50.766;4.474;2022-07-30T13:42:04;4.53;;;1.23;;
13897;SDS011;7019;50.766;4.474;2022-07-30T13:44:31;3.30;;;1.33;;
13897;SDS011;7019;50.766;4.474;2022-07-30T13:46:58;5.05;;;1.30;;
13897;SDS011;7019;50.766;4.474;2022-07-30T13:49:27;2.78;;;1.17;;
13897;SDS011;7019;50.766;4.474;2022-07-30T13:51:54;4.43;;;1.17;;
13897;SDS011;7019;50.766;4.474;2022-07-30T13:54:21;2.45;;;1.17;;
13897;SDS011;7019;50.766;4.474;2022-07-30T13:56:48;3.13;;;1.20;;
13897;SDS011;7019;50.766;4.474;2022-07-30T13:59:15;2.10;;;1.30;;
13897;SDS011;7019;50.766;4.474;2022-07-30T14:01:42;4.47;;;1.85;;
13897;SDS011;7019;50.766;4.474;2022-07-30T14:04:09;2.72;;;1.10;;
13897;SDS011;7019;50.766;4.474;2022-07-30T14:06:37;5.55;;;1.50;;
13897;SDS011;7019;50.766;4.474;2022-07-30T14:09:04;7.45;;;1.65;;
13897;SDS011;7019;50.766;4.474;2022-07-30T14:11:31;10.48;;;1.85;;
13897;SDS011;7019;50.766;4.474;2022-07-30T14:13:59;5.93;;;1.40;;
13897;SDS011;7019;50.766;4.474;2022-07-30T14:16:26;3.03;;;1.10;;
13897;SDS011;7019;50.766;4.474;2022-07-30T14:18:53;16.80;;;2.03;;
13897;SDS011;7019;50.766;4.474;2022-07-30T14:21:21;4.78;;;1.80;;
13897;SDS011;7019;50.766;4.474;2022-07-30T14:23:50;11.73;;;3.83;;
13897;SDS011;7019;50.766;4.474;2022-07-30T14:26:17;9.02;;;3.58;;
13897;SDS011;7019;50.766;4.474;2022-07-30T14:28:44;2.63;;;1.35;;
13897;SDS011;7019;50.766;4.474;2022-07-30T14:31:11;3.28;;;1.42;;
13897;SDS011;7019;50.766;4.474;2022-07-30T14:33:38;5.05;;;1.38;;
13897;SDS011;7019;50.766;4.474;2022-07-30T14:36:05;4.13;;;1.50;;
13897;SDS011;7019;50.766;4.474;2022-07-30T14:38:32;3.72;;;1.25;;
13897;SDS011;7019;50.766;4.474;2022-07-30T14:41:01;4.00;;;1.40;;
13897;SDS011;7019;50.766;4.474;2022-07-30T14:43:28;5.03;;;1.30;;
13897;SDS011;7019;50.766;4.474;2022-07-30T14:45:55;1.92;;;1.30;;
13897;SDS011;7019;50.766;4.474;2022-07-30T14:48:22;3.05;;;1.48;;
13897;SDS011;7019;50.766;4.474;2022-07-30T14:50:50;1.63;;;1.23;;
13897;SDS011;7019;50.766;4.474;2022-07-30T14:53:17;2.33;;;1.23;;
13897;SDS011;7019;50.766;4.474;2022-07-30T14:55:44;2.22;;;1.25;;
13897;SDS011;7019;50.766;4.474;2022-07-30T14:58:12;2.67;;;1.40;;
13897;SDS011;7019;50.766;4.474;2022-07-30T15:00:39;2.50;;;1.20;;
13897;SDS011;7019;50.766;4.474;2022-07-30T15:03:06;4.32;;;0.98;;
13897;SDS011;7019;50.766;4.474;2022-07-30T15:05:33;3.28;;;1.27;;
13897;SDS011;7019;50.766;4.474;2022-07-30T15:08:01;2.30;;;1.23;;
13897;SDS011;7019;50.766;4.474;2022-07-30T15:10:28;2.80;;;1.42;;
13897;SDS011;7019;50.766;4.474;2022-07-30T15:12:55;4.70;;;1.63;;
13897;SDS011;7019;50.766;4.474;2022-07-30T15:15:24;1.67;;;1.15;;
13897;SDS011;7019;50.766;4.474;2022-07-30T15:17:51;1.60;;;0.90;;
13897;SDS011;7019;50.766;4.474;2022-07-30T15:20:18;1.90;;;1.20;;
13897;SDS011;7019;50.766;4.474;2022-07-30T15:22:45;3.63;;;1.67;;
13897;SDS011;7019;50.766;4.474;2022-07-30T15:25:12;4.65;;;1.30;;
13897;SDS011;7019;50.766;4.474;2022-07-30T15:27:39;5.20;;;1.50;;
13897;SDS011;7019;50.766;4.474;2022-07-30T15:30:06;3.60;;;1.50;;